createdAt,value
2018-04-10T00:02:10.964Z,24.77
2018-04-10T00:04:43.759Z,25.60
2018-04-10T00:07:16.342Z,25.23
2018-04-10T00:09:49.574Z,25.73
2018-04-10T00:12:22.093Z,26.37
2018-04-10T00:14:54.656Z,28.43
2018-04-10T00:17:27.067Z,26.53
2018-04-10T00:19:59.661Z,25.53
2018-04-10T00:22:32.120Z,26.83
2018-04-10T00:25:04.594Z,24.70
2018-04-10T00:27:37.742Z,26.17
2018-04-10T00:30:10.217Z,24.13
2018-04-10T00:32:42.838Z,24.03
2018-04-10T00:35:15.492Z,25.93
2018-04-10T00:37:48.875Z,25.53
2018-04-10T00:40:21.293Z,25.50
2018-04-10T00:42:54.692Z,25.57
2018-04-10T00:45:27.322Z,26.33
2018-04-10T00:47:59.781Z,26.73
2018-04-10T00:50:32.304Z,26.60
2018-04-10T00:53:17.169Z,25.17
2018-04-10T00:55:50.452Z,24.53
2018-04-10T00:58:23.627Z,25.63
2018-04-10T01:00:56.028Z,26.03
2018-04-10T01:03:28.665Z,24.60
2018-04-10T01:06:01.293Z,26.97
2018-04-10T01:08:34.533Z,25.43
2018-04-10T01:11:07.813Z,25.00
2018-04-10T01:13:40.344Z,26.37
2018-04-10T01:16:12.907Z,25.43
2018-04-10T01:18:45.511Z,25.97
2018-04-10T01:21:17.828Z,26.93
2018-04-10T01:23:51.003Z,26.23
2018-04-10T01:26:23.427Z,25.70
2018-04-10T01:28:56.057Z,26.53
2018-04-10T01:31:28.586Z,26.67
2018-04-10T01:34:01.152Z,27.13
2018-04-10T01:36:34.495Z,27.33
2018-04-10T01:39:07.043Z,26.90
2018-04-10T01:41:39.593Z,26.03
2018-04-10T01:44:12.078Z,28.07
2018-04-10T01:46:45.938Z,27.27
2018-04-10T01:49:18.432Z,26.77
2018-04-10T01:51:50.763Z,28.27
2018-04-10T01:54:24.258Z,25.73
2018-04-10T01:56:56.718Z,27.47
2018-04-10T01:59:29.318Z,26.83
2018-04-10T02:02:01.858Z,28.23
2018-04-10T02:04:34.280Z,27.87
2018-04-10T02:07:06.753Z,27.43
2018-04-10T02:09:39.426Z,26.20
2018-04-10T02:12:12.184Z,27.33
2018-04-10T02:14:44.777Z,27.00
2018-04-10T02:17:17.544Z,27.27
2018-04-10T02:19:50.079Z,27.33
2018-04-10T02:22:22.820Z,27.77
2018-04-10T02:24:55.456Z,28.63
2018-04-10T02:27:28.210Z,28.13
2018-04-10T02:30:00.697Z,27.30
2018-04-10T02:32:34.212Z,28.73
2018-04-10T02:35:06.881Z,29.23
2018-04-10T02:37:39.667Z,29.57
2018-04-10T02:40:12.745Z,28.83
2018-04-10T02:42:45.369Z,29.40
2018-04-10T02:45:18.113Z,28.13
2018-04-10T02:47:50.697Z,29.60
2018-04-10T02:50:23.430Z,28.63
2018-04-10T02:52:56.770Z,29.33
2018-04-10T02:55:29.596Z,28.13
2018-04-10T02:58:02.869Z,31.50
2018-04-10T03:00:35.816Z,32.83
2018-04-10T03:03:08.346Z,30.70
2018-04-10T03:05:41.848Z,31.07
2018-04-10T03:08:14.662Z,29.23
2018-04-10T03:10:47.246Z,29.93
2018-04-10T03:13:19.936Z,30.70
2018-04-10T03:15:52.708Z,33.07
2018-04-10T03:18:25.470Z,30.87
2018-04-10T03:20:57.959Z,30.63
2018-04-10T03:23:30.763Z,31.67
2018-04-10T03:26:03.422Z,31.77
2018-04-10T03:28:36.076Z,33.43
2018-04-10T03:31:08.825Z,32.30
2018-04-10T03:33:41.535Z,31.03
2018-04-10T03:36:14.217Z,29.77
2018-04-10T03:38:47.665Z,32.53
2018-04-10T03:41:20.345Z,31.17
2018-04-10T03:43:53.198Z,30.20
2018-04-10T03:46:25.700Z,30.90
2018-04-10T03:48:58.601Z,31.37
2018-04-10T03:51:31.940Z,28.87
2018-04-10T03:54:05.179Z,32.03
2018-04-10T03:56:37.656Z,31.73
2018-04-10T03:59:10.331Z,34.97
2018-04-10T04:01:42.933Z,32.07
2018-04-10T04:04:15.548Z,33.50
2018-04-10T04:06:48.069Z,31.30
2018-04-10T04:09:20.731Z,31.57
2018-04-10T04:11:53.282Z,33.07
2018-04-10T04:14:25.963Z,32.67
2018-04-10T04:17:10.799Z,33.37
2018-04-10T04:19:55.595Z,33.40
2018-04-10T04:22:37.449Z,32.90
2018-04-10T04:25:10.539Z,33.53
2018-04-10T04:27:43.154Z,32.67
2018-04-10T04:30:15.702Z,32.70
2018-04-10T04:32:48.183Z,33.17
2018-04-10T04:35:20.830Z,32.80
2018-04-10T04:37:53.969Z,32.60
2018-04-10T04:40:27.300Z,29.87
2018-04-10T04:42:59.973Z,32.47
2018-04-10T04:45:32.615Z,32.37
2018-04-10T04:48:05.368Z,32.23
2018-04-10T04:50:38.008Z,31.80
2018-04-10T04:53:11.184Z,33.97
2018-04-10T04:55:44.359Z,34.70
2018-04-10T04:58:17.589Z,35.07
2018-04-10T05:00:50.163Z,34.27
2018-04-10T05:03:22.605Z,34.37
2018-04-10T05:05:55.346Z,37.47
2018-04-10T05:08:27.929Z,35.80
2018-04-10T05:11:00.475Z,36.83
2018-04-10T05:13:33.048Z,34.67
2018-04-10T05:16:05.799Z,35.23
2018-04-10T05:18:38.459Z,37.30
2018-04-10T05:21:11.129Z,36.20
2018-04-10T05:23:44.542Z,38.83
2018-04-10T05:26:16.914Z,38.27
2018-04-10T05:28:49.553Z,35.03
2018-04-10T05:31:21.988Z,36.90
2018-04-10T05:33:54.774Z,34.63
2018-04-10T05:36:28.161Z,36.37
2018-04-10T05:39:00.689Z,34.20
2018-04-10T05:41:33.074Z,37.53
2018-04-10T05:44:05.750Z,40.50
2018-04-10T05:46:39.643Z,38.30
2018-04-10T05:49:12.130Z,38.07
2018-04-10T05:51:45.239Z,36.63
2018-04-10T05:54:18.699Z,36.47
2018-04-10T05:56:51.295Z,34.33
2018-04-10T05:59:24.603Z,34.77
2018-04-10T06:01:58.279Z,35.40
2018-04-10T06:04:30.688Z,36.10
2018-04-10T06:07:03.221Z,36.07
2018-04-10T06:09:36.590Z,36.00
2018-04-10T06:12:09.038Z,35.10
2018-04-10T06:14:41.778Z,37.03
2018-04-10T06:17:14.577Z,36.07
2018-04-10T06:19:47.028Z,38.43
2018-04-10T06:22:19.438Z,36.80
2018-04-10T06:24:51.888Z,35.47
2018-04-10T06:27:25.423Z,36.57
2018-04-10T06:29:58.686Z,36.43
2018-04-10T06:32:31.070Z,35.93
2018-04-10T06:35:03.389Z,34.77
2018-04-10T06:37:36.594Z,34.33
2018-04-10T06:40:09.027Z,34.87
2018-04-10T06:42:41.467Z,33.93
2018-04-10T06:45:14.350Z,31.27
2018-04-10T06:47:47.701Z,32.23
2018-04-10T06:50:20.229Z,30.80
2018-04-10T06:52:52.715Z,32.37
2018-04-10T06:55:25.431Z,32.77
2018-04-10T06:57:58.644Z,35.90
2018-04-10T07:00:31.849Z,35.70
2018-04-10T07:03:04.230Z,36.27
2018-04-10T07:05:37.420Z,37.67
2018-04-10T07:08:09.960Z,39.23
2018-04-10T07:10:42.401Z,36.03
2018-04-10T07:13:15.058Z,35.93
2018-04-10T07:15:47.384Z,35.50
2018-04-10T07:18:19.826Z,34.17
2018-04-10T07:20:52.353Z,33.53
2018-04-10T07:23:24.974Z,33.13
2018-04-10T07:25:58.464Z,33.80
2018-04-10T07:28:31.026Z,32.83
2018-04-10T07:31:03.730Z,31.20
2018-04-10T07:33:37.167Z,33.13
2018-04-10T07:36:09.921Z,32.73
2018-04-10T07:38:42.795Z,31.43
2018-04-10T07:41:15.270Z,32.60
2018-04-10T07:43:48.505Z,31.50
2018-04-10T07:46:20.946Z,27.90
2018-04-10T07:48:53.381Z,27.63
2018-04-10T07:51:26.193Z,26.93
2018-04-10T07:53:58.899Z,24.90
2018-04-10T07:56:32.328Z,27.10
2018-04-10T07:59:04.883Z,26.33
2018-04-10T08:01:38.000Z,28.13
2018-04-10T08:04:10.549Z,28.90
2018-04-10T08:06:42.961Z,27.60
2018-04-10T08:09:16.181Z,26.40
2018-04-10T08:11:49.491Z,27.73
2018-04-10T08:14:21.966Z,27.93
2018-04-10T08:16:54.699Z,29.43
2018-04-10T08:19:27.506Z,32.57
2018-04-10T08:22:00.015Z,29.40
2018-04-10T08:24:32.711Z,28.67
2018-04-10T08:27:05.091Z,29.67
2018-04-10T08:29:37.469Z,28.53
2018-04-10T08:32:09.963Z,25.73
2018-04-10T08:34:43.267Z,24.50
2018-04-10T08:37:15.696Z,23.67
2018-04-10T08:39:48.839Z,24.10
2018-04-10T08:42:22.133Z,22.53
2018-04-10T08:44:55.679Z,25.47
2018-04-10T08:47:28.698Z,26.50
2018-04-10T08:50:01.393Z,24.90
2018-04-10T08:52:34.105Z,24.87
2018-04-10T08:55:07.376Z,24.17
2018-04-10T08:57:39.781Z,24.90
2018-04-10T09:00:12.162Z,23.67
2018-04-10T09:02:44.632Z,23.33
2018-04-10T09:05:17.160Z,23.47
2018-04-10T09:07:49.762Z,24.93
2018-04-10T09:10:22.392Z,22.43
2018-04-10T09:12:54.982Z,22.73
2018-04-10T09:15:27.430Z,21.33
2018-04-10T09:17:59.954Z,20.67
2018-04-10T09:20:33.022Z,22.47
2018-04-10T09:23:05.558Z,23.47
2018-04-10T09:25:38.339Z,20.93
2018-04-10T09:28:11.057Z,21.67
2018-04-10T09:30:44.203Z,22.20
2018-04-10T09:33:16.727Z,21.87
2018-04-10T09:35:49.448Z,22.33
2018-04-10T09:38:22.024Z,22.77
2018-04-10T09:40:54.553Z,22.43
2018-04-10T09:43:27.117Z,20.23
2018-04-10T09:45:59.514Z,21.30
2018-04-10T09:48:33.031Z,22.70
2018-04-10T09:51:05.657Z,23.93
2018-04-10T09:53:38.219Z,24.10
2018-04-10T09:56:11.628Z,23.08
2018-04-10T09:58:44.130Z,22.05
2018-04-10T10:01:16.869Z,24.70
2018-04-10T10:03:49.349Z,25.23
2018-04-10T10:06:21.813Z,23.48
2018-04-10T10:08:54.981Z,24.23
2018-04-10T10:11:27.583Z,22.58
2018-04-10T10:14:00.166Z,24.70
2018-04-10T10:16:32.802Z,21.27
2018-04-10T10:19:05.579Z,24.52
2018-04-10T10:21:38.091Z,20.90
2018-04-10T10:24:10.744Z,23.27
2018-04-10T10:26:43.426Z,21.25
2018-04-10T10:29:16.007Z,23.85
2018-04-10T10:31:49.317Z,26.83
2018-04-10T10:34:22.718Z,22.83
2018-04-10T10:36:55.418Z,23.95
2018-04-10T10:39:27.969Z,25.77
2018-04-10T10:42:00.687Z,27.05
2018-04-10T10:44:33.214Z,27.30
2018-04-10T10:47:05.686Z,28.50
2018-04-10T10:49:38.258Z,27.17
2018-04-10T10:52:10.934Z,27.45
2018-04-10T10:54:43.462Z,26.62
2018-04-10T10:57:16.125Z,26.15
2018-04-10T10:59:48.846Z,28.52
2018-04-10T11:02:21.426Z,26.27
2018-04-10T11:04:54.011Z,25.50
2018-04-10T11:07:26.455Z,27.23
2018-04-10T11:09:58.956Z,27.98
2018-04-10T11:12:31.935Z,27.42
2018-04-10T11:15:04.540Z,27.02
2018-04-10T11:17:37.721Z,24.52
2018-04-10T11:20:10.210Z,27.05
2018-04-10T11:22:43.353Z,26.92
2018-04-10T11:25:15.860Z,24.33
2018-04-10T11:27:48.511Z,23.65
2018-04-10T11:30:21.106Z,21.27
2018-04-10T11:32:53.657Z,21.02
2018-04-10T11:35:26.124Z,22.60
2018-04-10T11:37:58.673Z,20.88
2018-04-10T11:40:31.278Z,22.30
2018-04-10T11:43:03.694Z,23.50
2018-04-10T11:45:36.334Z,24.05
2018-04-10T11:48:08.821Z,21.65
2018-04-10T11:50:41.523Z,23.77
2018-04-10T11:53:13.974Z,20.70
2018-04-10T11:55:46.797Z,22.83
2018-04-10T11:58:19.321Z,25.33
2018-04-10T12:00:52.419Z,22.75
2018-04-10T12:03:25.122Z,26.77
2018-04-10T12:05:57.686Z,23.17
2018-04-10T12:08:30.711Z,22.27
2018-04-10T12:11:03.948Z,25.02
2018-04-10T12:13:36.253Z,25.60
2018-04-10T12:16:09.067Z,24.98
2018-04-10T12:18:42.288Z,26.65
2018-04-10T12:21:14.696Z,26.17
2018-04-10T12:23:47.096Z,28.65
2018-04-10T12:26:23.958Z,28.85
2018-04-10T12:28:56.361Z,26.35
2018-04-10T12:31:28.822Z,28.25
2018-04-10T12:34:01.460Z,28.67
2018-04-10T12:36:34.090Z,28.35
2018-04-10T12:39:06.606Z,28.98
2018-04-10T12:41:39.280Z,26.62
2018-04-10T12:44:12.502Z,27.85
2018-04-10T12:46:45.885Z,26.75
2018-04-10T12:49:18.620Z,30.92
2018-04-10T12:51:51.893Z,25.67
2018-04-10T12:54:25.379Z,31.40
2018-04-10T12:56:57.960Z,30.85
2018-04-10T12:59:30.453Z,29.55
2018-04-10T13:02:03.137Z,27.33
2018-04-10T13:04:35.676Z,30.92
2018-04-10T13:07:08.719Z,30.40
2018-04-10T13:09:41.272Z,27.45
2018-04-10T13:12:13.907Z,31.62
2018-04-10T13:14:46.603Z,31.48
2018-04-10T13:17:19.299Z,31.10
2018-04-10T13:19:51.874Z,25.52
2018-04-10T13:22:24.491Z,27.33
2018-04-10T13:24:56.796Z,27.73
2018-04-10T13:27:29.418Z,29.12
2018-04-10T13:30:02.720Z,29.98
2018-04-10T13:32:35.329Z,26.62
2018-04-10T13:35:08.026Z,30.90
2018-04-10T13:37:40.612Z,30.20
2018-04-10T13:40:13.084Z,27.65
2018-04-10T13:42:46.569Z,29.00
2018-04-10T13:45:19.070Z,26.20
2018-04-10T13:47:51.647Z,29.35
2018-04-10T13:50:23.969Z,29.67
2018-04-10T13:52:56.332Z,31.40
2018-04-10T13:55:28.973Z,30.65
2018-04-10T13:58:02.305Z,30.50
2018-04-10T14:00:34.795Z,26.92
2018-04-10T14:03:08.167Z,32.78
2018-04-10T14:05:40.831Z,31.10
2018-04-10T14:08:18.507Z,34.95
2018-04-10T14:10:50.893Z,32.88
2018-04-10T14:13:23.324Z,32.97
2018-04-10T14:15:56.709Z,32.40
2018-04-10T14:18:29.302Z,34.28
2018-04-10T14:21:01.667Z,31.58
2018-04-10T14:23:34.231Z,33.92
2018-04-10T14:26:06.879Z,28.50
2018-04-10T14:28:39.671Z,35.78
2018-04-10T14:31:12.271Z,34.78
2018-04-10T14:33:44.910Z,33.47
2018-04-10T14:36:17.714Z,35.35
2018-04-10T14:38:50.149Z,35.50
2018-04-10T14:41:23.233Z,31.10
2018-04-10T14:43:55.668Z,35.75
2018-04-10T14:46:28.446Z,36.35
2018-04-10T14:49:01.951Z,35.47
2018-04-10T14:51:34.538Z,29.20
2018-04-10T14:54:07.141Z,34.13
2018-04-10T14:56:42.134Z,32.85
2018-04-10T14:59:14.607Z,29.73
2018-04-10T15:01:47.901Z,30.45
2018-04-10T15:04:21.059Z,30.73
2018-04-10T15:06:53.752Z,29.60
2018-04-10T15:09:26.356Z,32.15
2018-04-10T15:11:58.983Z,33.50
2018-04-10T15:14:32.192Z,33.05
2018-04-10T15:17:04.700Z,33.20
2018-04-10T15:19:37.488Z,32.55
2018-04-10T15:22:11.496Z,32.13
2018-04-10T15:24:44.038Z,35.90
2018-04-10T15:27:16.536Z,35.17
2018-04-10T15:29:49.141Z,34.10
2018-04-10T15:32:21.713Z,35.88
2018-04-10T15:34:54.267Z,32.33
2018-04-10T15:37:26.618Z,30.40
2018-04-10T15:39:59.744Z,33.53
2018-04-10T15:42:33.572Z,30.12
2018-04-10T15:45:07.045Z,29.92
2018-04-10T15:47:39.641Z,29.30
2018-04-10T15:50:13.736Z,32.10
2018-04-10T15:52:46.175Z,28.92
2018-04-10T15:55:18.871Z,29.45
2018-04-10T15:57:51.279Z,31.60
2018-04-10T16:00:23.781Z,33.00
2018-04-10T16:02:56.336Z,31.10
2018-04-10T16:05:28.981Z,32.33
2018-04-10T16:08:01.631Z,29.67
2018-04-10T16:10:34.185Z,30.73
2018-04-10T16:13:08.147Z,33.67
2018-04-10T16:15:40.831Z,30.92
2018-04-10T16:18:13.415Z,33.70
2018-04-10T16:20:46.252Z,36.25
2018-04-10T16:23:18.737Z,31.58
2018-04-10T16:25:51.362Z,32.67
2018-04-10T16:28:23.930Z,31.65
2018-04-10T16:30:56.617Z,31.87
2018-04-10T16:33:23.061Z,30.75
2018-04-10T16:35:49.491Z,28.87
2018-04-10T16:38:15.818Z,31.08
2018-04-10T16:40:42.196Z,28.90
2018-04-10T16:43:08.486Z,31.30
2018-04-10T16:45:34.885Z,32.60
2018-04-10T16:48:01.215Z,32.72
2018-04-10T16:50:27.604Z,31.10
2018-04-10T16:52:53.923Z,29.35
2018-04-10T16:55:20.267Z,34.30
2018-04-10T16:57:46.558Z,33.30
2018-04-10T17:00:13.582Z,33.13
2018-04-10T17:02:39.895Z,31.77
2018-04-10T17:05:06.194Z,36.85
2018-04-10T17:07:32.524Z,33.70
2018-04-10T17:09:58.847Z,36.40
2018-04-10T17:12:25.190Z,35.42
2018-04-10T17:14:51.655Z,34.80
2018-04-10T17:17:17.950Z,33.95
2018-04-10T17:19:44.286Z,34.03
2018-04-10T17:22:10.865Z,38.63
2018-04-10T17:24:37.198Z,36.55
2018-04-10T17:27:03.534Z,35.28
2018-04-10T17:29:30.943Z,35.05
2018-04-10T17:31:57.346Z,34.50
2018-04-10T17:34:23.764Z,35.63
2018-04-10T17:36:50.122Z,35.83
2018-04-10T17:39:16.492Z,32.58
2018-04-10T17:41:42.798Z,29.80
2018-04-10T17:44:09.198Z,31.23
2018-04-10T17:46:41.778Z,33.25
2018-04-10T17:49:14.391Z,32.92
2018-04-10T17:51:46.831Z,32.55
2018-04-10T17:54:19.531Z,32.05
2018-04-10T17:56:52.108Z,31.60
2018-04-10T17:59:24.795Z,32.22
2018-04-10T18:01:57.519Z,29.12
2018-04-10T18:04:30.150Z,30.50
2018-04-10T18:07:02.849Z,31.90
2018-04-10T18:09:35.474Z,32.85
2018-04-10T18:12:08.266Z,30.67
2018-04-10T18:14:40.684Z,31.58
2018-04-10T18:17:13.457Z,30.70
2018-04-10T18:19:46.080Z,31.17
2018-04-10T18:22:19.535Z,31.40
2018-04-10T18:24:52.251Z,28.85
2018-04-10T18:27:24.875Z,33.13
2018-04-10T18:29:57.568Z,30.70
2018-04-10T18:32:30.436Z,31.70
2018-04-10T18:35:03.158Z,31.50
2018-04-10T18:37:35.829Z,32.05
2018-04-10T18:40:09.552Z,32.47
2018-04-10T18:42:42.239Z,32.17
2018-04-10T18:45:15.097Z,31.50
2018-04-10T18:47:47.757Z,31.73
2018-04-10T18:50:20.305Z,29.70
2018-04-10T18:52:52.789Z,31.05
2018-04-10T18:55:25.663Z,30.83
2018-04-10T18:57:58.046Z,29.63
2018-04-10T19:00:30.797Z,26.50
2018-04-10T19:03:03.473Z,27.03
2018-04-10T19:05:36.972Z,27.43
2018-04-10T19:08:09.620Z,25.33
2018-04-10T19:10:42.508Z,22.67
2018-04-10T19:13:15.303Z,22.07
2018-04-10T19:15:47.907Z,20.83
2018-04-10T19:18:21.514Z,18.30
2018-04-10T19:20:55.033Z,17.67
2018-04-10T19:23:27.662Z,17.87
2018-04-10T19:26:00.367Z,18.07
2018-04-10T19:28:33.130Z,16.30
2018-04-10T19:31:06.643Z,16.50
2018-04-10T19:33:39.158Z,16.73
2018-04-10T19:36:11.721Z,15.30
2018-04-10T19:38:44.210Z,14.00
2018-04-10T19:41:17.040Z,13.77
2018-04-10T19:43:49.861Z,12.20
2018-04-10T19:46:24.077Z,12.40
2018-04-10T19:48:56.579Z,11.17
2018-04-10T19:51:29.373Z,12.00
2018-04-10T19:54:01.904Z,11.90
2018-04-10T19:56:34.437Z,10.70
2018-04-10T19:59:07.824Z,10.60
2018-04-10T20:01:40.321Z,11.47
2018-04-10T20:04:13.168Z,10.67
2018-04-10T20:06:46.562Z,10.63
2018-04-10T20:09:19.321Z,10.70
2018-04-10T20:11:52.201Z,11.30
2018-04-10T20:14:25.553Z,13.73
2018-04-10T20:16:58.389Z,16.70
2018-04-10T20:19:32.207Z,15.23
2018-04-10T20:22:04.883Z,15.70
2018-04-10T20:24:37.386Z,13.67
2018-04-10T20:27:10.897Z,13.27
2018-04-10T20:29:43.504Z,13.60
2018-04-10T20:32:16.292Z,13.03
2018-04-10T20:34:48.846Z,12.73
2018-04-10T20:37:21.290Z,12.47
2018-04-10T20:39:53.924Z,12.60
2018-04-10T20:42:26.552Z,12.53
2018-04-10T20:44:59.230Z,12.10
2018-04-10T20:47:31.666Z,11.93
2018-04-10T20:50:05.036Z,12.20
2018-04-10T20:52:38.497Z,11.80
2018-04-10T20:55:11.307Z,11.83
2018-04-10T20:57:43.851Z,12.10
2018-04-10T21:00:16.487Z,11.40
2018-04-10T21:02:49.910Z,12.43
2018-04-10T21:05:22.387Z,11.90
2018-04-10T21:07:54.948Z,12.33
2018-04-10T21:10:27.641Z,11.90
2018-04-10T21:13:00.694Z,11.57
2018-04-10T21:15:33.357Z,12.67
2018-04-10T21:18:05.864Z,11.70
2018-04-10T21:20:38.791Z,12.53
2018-04-10T21:23:05.207Z,11.97
2018-04-10T21:25:31.838Z,12.10
2018-04-10T21:27:58.358Z,13.17
2018-04-10T21:30:24.940Z,12.13
2018-04-10T21:32:51.472Z,12.20
2018-04-10T21:35:19.599Z,12.10
2018-04-10T21:37:46.657Z,11.97
2018-04-10T21:40:13.272Z,11.90
2018-04-10T21:42:45.848Z,11.43
2018-04-10T21:45:12.448Z,13.03
2018-04-10T21:47:39.867Z,12.87
2018-04-10T21:50:06.636Z,14.33
2018-04-10T21:52:33.602Z,14.93
2018-04-10T21:55:01.017Z,14.77
2018-04-10T21:57:33.709Z,15.70
2018-04-10T22:00:06.662Z,15.80
2018-04-10T22:02:40.356Z,15.33
2018-04-10T22:05:13.061Z,15.97
2018-04-10T22:07:45.777Z,16.70
2018-04-10T22:10:19.555Z,17.63
2018-04-10T22:12:52.868Z,17.50
2018-04-10T22:15:25.707Z,19.50
2018-04-10T22:17:59.515Z,17.93
2018-04-10T22:20:32.192Z,19.17
2018-04-10T22:23:05.286Z,20.30
2018-04-10T22:25:38.372Z,19.63
2018-04-10T22:28:11.962Z,20.33
2018-04-10T22:30:45.410Z,22.50
2018-04-10T22:33:17.857Z,23.50
2018-04-10T22:35:50.522Z,22.43
2018-04-10T22:38:23.082Z,23.97
2018-04-10T22:40:55.982Z,24.47
2018-04-10T22:43:29.234Z,23.20
2018-04-10T22:46:01.747Z,22.83
2018-04-10T22:48:34.417Z,22.37
2018-04-10T22:51:07.045Z,18.77
2018-04-10T22:53:39.656Z,18.10
2018-04-10T22:56:13.075Z,18.20
2018-04-10T22:58:45.855Z,19.57
2018-04-10T23:01:19.036Z,19.27
2018-04-10T23:03:51.685Z,20.80
2018-04-10T23:06:25.248Z,19.70
2018-04-10T23:08:58.203Z,19.70
2018-04-10T23:11:31.769Z,19.57
2018-04-10T23:14:05.012Z,18.43
2018-04-10T23:16:37.655Z,21.13
2018-04-10T23:19:10.679Z,20.27
2018-04-10T23:21:43.766Z,20.23
2018-04-10T23:24:17.128Z,21.03
2018-04-10T23:26:49.675Z,21.63
2018-04-10T23:29:22.858Z,20.23
2018-04-10T23:31:56.674Z,20.97
2018-04-10T23:34:30.252Z,21.97
2018-04-10T23:37:03.121Z,21.77
2018-04-10T23:39:35.627Z,20.57
2018-04-10T23:42:09.310Z,21.33
2018-04-10T23:44:41.938Z,23.73
2018-04-10T23:47:14.660Z,23.50
2018-04-10T23:49:47.189Z,20.83
2018-04-10T23:52:19.759Z,21.70
2018-04-10T23:54:52.205Z,21.30
2018-04-10T23:57:25.293Z,21.80
2018-04-10T23:59:57.851Z,21.40
